sensor_id;sensor_type;location;lat;lon;timestamp;temperature;humidity
2579;DHT22;1299;48.282;14.398;2023-05-29T00:00:02;14.10;99.90
2579;DHT22;1299;48.282;14.398;2023-05-29T00:02:31;14.10;99.90
2579;DHT22;1299;48.282;14.398;2023-05-29T00:04:59;14.10;99.90
2579;DHT22;1299;48.282;14.398;2023-05-29T00:07:28;14.10;99.90
2579;DHT22;1299;48.282;14.398;2023-05-29T00:09:55;14.10;99.90
2579;DHT22;1299;48.282;14.398;2023-05-29T00:12:22;14.00;99.90
2579;DHT22;1299;48.282;14.398;2023-05-29T00:14:49;14.10;99.90
2579;DHT22;1299;48.282;14.398;2023-05-29T00:17:16;14.10;99.90
2579;DHT22;1299;48.282;14.398;2023-05-29T00:19:43;14.00;99.90
2579;DHT22;1299;48.282;14.398;2023-05-29T00:22:11;13.90;99.90
2579;DHT22;1299;48.282;14.398;2023-05-29T00:24:39;13.80;99.90
2579;DHT22;1299;48.282;14.398;2023-05-29T00:27:06;13.70;99.90
2579;DHT22;1299;48.282;14.398;2023-05-29T00:29:34;13.60;99.90
2579;DHT22;1299;48.282;14.398;2023-05-29T00:32:01;13.40;99.90
2579;DHT22;1299;48.282;14.398;2023-05-29T00:34:28;13.40;99.90
2579;DHT22;1299;48.282;14.398;2023-05-29T00:36:55;13.30;99.90
2579;DHT22;1299;48.282;14.398;2023-05-29T00:39:24;13.30;99.90
2579;DHT22;1299;48.282;14.398;2023-05-29T00:41:51;13.30;99.90
2579;DHT22;1299;48.282;14.398;2023-05-29T00:44:18;13.30;99.90
2579;DHT22;1299;48.282;14.398;2023-05-29T00:46:46;13.30;99.90
2579;DHT22;1299;48.282;14.398;2023-05-29T00:49:13;13.20;99.90
2579;DHT22;1299;48.282;14.398;2023-05-29T00:51:42;13.20;99.90
2579;DHT22;1299;48.282;14.398;2023-05-29T00:54:11;13.20;99.90
2579;DHT22;1299;48.282;14.398;2023-05-29T00:56:41;13.10;99.90
2579;DHT22;1299;48.282;14.398;2023-05-29T00:59:09;13.10;99.90
2579;DHT22;1299;48.282;14.398;2023-05-29T01:01:37;13.20;99.90
2579;DHT22;1299;48.282;14.398;2023-05-29T01:04:06;13.20;99.90
2579;DHT22;1299;48.282;14.398;2023-05-29T01:06:33;13.20;99.90
2579;DHT22;1299;48.282;14.398;2023-05-29T01:09:00;13.30;99.90
2579;DHT22;1299;48.282;14.398;2023-05-29T01:11:38;13.30;99.90
2579;DHT22;1299;48.282;14.398;2023-05-29T01:14:15;13.30;99.90
2579;DHT22;1299;48.282;14.398;2023-05-29T01:16:51;13.40;99.90
2579;DHT22;1299;48.282;14.398;2023-05-29T01:19:28;13.40;99.90
2579;DHT22;1299;48.282;14.398;2023-05-29T01:22:12;13.30;99.90
2579;DHT22;1299;48.282;14.398;2023-05-29T01:24:49;13.30;99.90
2579;DHT22;1299;48.282;14.398;2023-05-29T01:27:21;13.30;99.90
2579;DHT22;1299;48.282;14.398;2023-05-29T01:29:51;13.20;99.90
2579;DHT22;1299;48.282;14.398;2023-05-29T01:32:20;13.20;99.90
2579;DHT22;1299;48.282;14.398;2023-05-29T01:34:48;13.10;99.90
2579;DHT22;1299;48.282;14.398;2023-05-29T01:37:15;13.10;99.90
2579;DHT22;1299;48.282;14.398;2023-05-29T01:39:42;13.10;99.90
2579;DHT22;1299;48.282;14.398;2023-05-29T01:42:09;13.10;99.90
2579;DHT22;1299;48.282;14.398;2023-05-29T01:44:38;13.10;99.90
2579;DHT22;1299;48.282;14.398;2023-05-29T01:47:05;13.10;99.90
2579;DHT22;1299;48.282;14.398;2023-05-29T01:49:33;13.10;99.90
2579;DHT22;1299;48.282;14.398;2023-05-29T01:52:01;13.10;99.90
2579;DHT22;1299;48.282;14.398;2023-05-29T01:54:28;13.20;99.90
2579;DHT22;1299;48.282;14.398;2023-05-29T01:56:55;13.10;99.90
2579;DHT22;1299;48.282;14.398;2023-05-29T01:59:23;13.10;99.90
2579;DHT22;1299;48.282;14.398;2023-05-29T02:01:51;13.10;99.90
2579;DHT22;1299;48.282;14.398;2023-05-29T02:04:18;13.10;99.90
2579;DHT22;1299;48.282;14.398;2023-05-29T02:06:45;13.00;99.90
2579;DHT22;1299;48.282;14.398;2023-05-29T02:09:12;12.80;99.90
2579;DHT22;1299;48.282;14.398;2023-05-29T02:11:39;13.00;99.90
2579;DHT22;1299;48.282;14.398;2023-05-29T02:14:10;13.10;99.90
2579;DHT22;1299;48.282;14.398;2023-05-29T02:16:37;13.10;99.90
2579;DHT22;1299;48.282;14.398;2023-05-29T02:19:07;13.10;99.90
2579;DHT22;1299;48.282;14.398;2023-05-29T02:21:37;13.10;99.90
2579;DHT22;1299;48.282;14.398;2023-05-29T02:24:04;13.10;99.90
2579;DHT22;1299;48.282;14.398;2023-05-29T02:26:31;12.80;99.90
2579;DHT22;1299;48.282;14.398;2023-05-29T02:28:58;13.00;99.90
2579;DHT22;1299;48.282;14.398;2023-05-29T02:31:26;13.00;99.90
2579;DHT22;1299;48.282;14.398;2023-05-29T02:33:53;13.10;99.90
2579;DHT22;1299;48.282;14.398;2023-05-29T02:36:21;13.00;99.90
2579;DHT22;1299;48.282;14.398;2023-05-29T02:38:48;12.90;99.90
2579;DHT22;1299;48.282;14.398;2023-05-29T02:41:15;13.00;99.90
2579;DHT22;1299;48.282;14.398;2023-05-29T02:43:42;13.10;99.90
2579;DHT22;1299;48.282;14.398;2023-05-29T02:46:09;13.00;99.90
2579;DHT22;1299;48.282;14.398;2023-05-29T02:48:36;12.90;99.90
2579;DHT22;1299;48.282;14.398;2023-05-29T02:51:03;12.80;99.90
2579;DHT22;1299;48.282;14.398;2023-05-29T02:53:31;12.70;99.90
2579;DHT22;1299;48.282;14.398;2023-05-29T02:55:58;12.60;99.90
2579;DHT22;1299;48.282;14.398;2023-05-29T02:58:26;12.60;99.90
2579;DHT22;1299;48.282;14.398;2023-05-29T03:00:53;12.60;99.90
2579;DHT22;1299;48.282;14.398;2023-05-29T03:03:20;12.60;99.90
2579;DHT22;1299;48.282;14.398;2023-05-29T03:05:47;12.60;99.90
2579;DHT22;1299;48.282;14.398;2023-05-29T03:08:13;12.60;99.90
2579;DHT22;1299;48.282;14.398;2023-05-29T03:10:42;12.50;99.90
2579;DHT22;1299;48.282;14.398;2023-05-29T03:13:10;12.50;99.90
2579;DHT22;1299;48.282;14.398;2023-05-29T03:15:37;12.40;99.90
2579;DHT22;1299;48.282;14.398;2023-05-29T03:18:04;12.40;99.90
2579;DHT22;1299;48.282;14.398;2023-05-29T03:20:31;12.40;99.90
2579;DHT22;1299;48.282;14.398;2023-05-29T03:22:58;12.30;99.90
2579;DHT22;1299;48.282;14.398;2023-05-29T03:25:25;12.30;99.90
2579;DHT22;1299;48.282;14.398;2023-05-29T03:27:53;12.20;99.90
2579;DHT22;1299;48.282;14.398;2023-05-29T03:30:21;12.10;99.90
2579;DHT22;1299;48.282;14.398;2023-05-29T03:32:48;12.10;99.90
2579;DHT22;1299;48.282;14.398;2023-05-29T03:35:15;12.10;99.90
2579;DHT22;1299;48.282;14.398;2023-05-29T03:37:42;12.10;99.90
2579;DHT22;1299;48.282;14.398;2023-05-29T03:40:09;12.00;99.90
2579;DHT22;1299;48.282;14.398;2023-05-29T03:42:37;12.10;99.90
2579;DHT22;1299;48.282;14.398;2023-05-29T03:45:06;12.10;99.90
2579;DHT22;1299;48.282;14.398;2023-05-29T03:47:33;12.20;99.90
2579;DHT22;1299;48.282;14.398;2023-05-29T03:50:00;12.10;99.90
2579;DHT22;1299;48.282;14.398;2023-05-29T03:52:27;12.10;99.90
2579;DHT22;1299;48.282;14.398;2023-05-29T03:54:54;12.20;99.90
2579;DHT22;1299;48.282;14.398;2023-05-29T03:57:20;12.20;99.90
2579;DHT22;1299;48.282;14.398;2023-05-29T03:59:47;12.20;99.90
2579;DHT22;1299;48.282;14.398;2023-05-29T04:02:16;12.20;99.90
2579;DHT22;1299;48.282;14.398;2023-05-29T04:04:43;12.20;99.90
2579;DHT22;1299;48.282;14.398;2023-05-29T04:07:10;12.30;99.90
2579;DHT22;1299;48.282;14.398;2023-05-29T04:09:37;12.30;99.90
2579;DHT22;1299;48.282;14.398;2023-05-29T04:12:04;12.40;99.90
2579;DHT22;1299;48.282;14.398;2023-05-29T04:14:32;12.50;99.90
2579;DHT22;1299;48.282;14.398;2023-05-29T04:16:59;12.50;99.90
2579;DHT22;1299;48.282;14.398;2023-05-29T04:19:27;12.50;99.90
2579;DHT22;1299;48.282;14.398;2023-05-29T04:21:54;12.60;99.90
2579;DHT22;1299;48.282;14.398;2023-05-29T04:24:21;12.50;99.90
2579;DHT22;1299;48.282;14.398;2023-05-29T04:26:50;12.50;99.90
2579;DHT22;1299;48.282;14.398;2023-05-29T04:29:17;12.60;99.90
2579;DHT22;1299;48.282;14.398;2023-05-29T04:31:45;12.60;99.90
2579;DHT22;1299;48.282;14.398;2023-05-29T04:34:12;12.60;99.90
2579;DHT22;1299;48.282;14.398;2023-05-29T04:36:44;12.70;99.90
2579;DHT22;1299;48.282;14.398;2023-05-29T04:39:11;12.70;99.90
2579;DHT22;1299;48.282;14.398;2023-05-29T04:41:39;12.80;99.90
2579;DHT22;1299;48.282;14.398;2023-05-29T04:44:06;12.90;99.90
2579;DHT22;1299;48.282;14.398;2023-05-29T04:46:35;13.00;99.90
2579;DHT22;1299;48.282;14.398;2023-05-29T04:49:03;13.10;99.90
2579;DHT22;1299;48.282;14.398;2023-05-29T04:51:30;13.10;99.90
2579;DHT22;1299;48.282;14.398;2023-05-29T04:53:59;13.20;99.90
2579;DHT22;1299;48.282;14.398;2023-05-29T04:56:26;13.30;99.90
2579;DHT22;1299;48.282;14.398;2023-05-29T04:58:53;13.50;99.90
2579;DHT22;1299;48.282;14.398;2023-05-29T05:01:20;13.60;99.90
2579;DHT22;1299;48.282;14.398;2023-05-29T05:03:49;13.70;99.90
2579;DHT22;1299;48.282;14.398;2023-05-29T05:06:16;13.90;99.90
2579;DHT22;1299;48.282;14.398;2023-05-29T05:08:44;14.10;99.90
2579;DHT22;1299;48.282;14.398;2023-05-29T05:11:12;14.20;99.90
2579;DHT22;1299;48.282;14.398;2023-05-29T05:13:40;14.50;99.90
2579;DHT22;1299;48.282;14.398;2023-05-29T05:16:07;14.70;99.90
2579;DHT22;1299;48.282;14.398;2023-05-29T05:18:34;14.90;99.90
2579;DHT22;1299;48.282;14.398;2023-05-29T05:21:00;15.30;99.90
2579;DHT22;1299;48.282;14.398;2023-05-29T05:23:29;15.60;99.90
2579;DHT22;1299;48.282;14.398;2023-05-29T05:25:56;15.90;99.90
2579;DHT22;1299;48.282;14.398;2023-05-29T05:28:24;16.10;99.90
2579;DHT22;1299;48.282;14.398;2023-05-29T05:30:51;16.40;99.90
2579;DHT22;1299;48.282;14.398;2023-05-29T05:33:18;16.60;99.90
2579;DHT22;1299;48.282;14.398;2023-05-29T05:35:45;16.90;99.90
2579;DHT22;1299;48.282;14.398;2023-05-29T05:38:12;17.00;99.90
2579;DHT22;1299;48.282;14.398;2023-05-29T05:40:39;17.10;99.90
2579;DHT22;1299;48.282;14.398;2023-05-29T05:43:06;17.20;99.90
2579;DHT22;1299;48.282;14.398;2023-05-29T05:45:34;17.30;99.90
2579;DHT22;1299;48.282;14.398;2023-05-29T05:48:03;17.70;99.90
2579;DHT22;1299;48.282;14.398;2023-05-29T05:50:30;17.90;99.90
2579;DHT22;1299;48.282;14.398;2023-05-29T05:52:57;17.70;99.90
2579;DHT22;1299;48.282;14.398;2023-05-29T05:55:24;18.10;99.90
2579;DHT22;1299;48.282;14.398;2023-05-29T05:57:52;18.00;99.90
2579;DHT22;1299;48.282;14.398;2023-05-29T06:00:19;18.00;99.90
2579;DHT22;1299;48.282;14.398;2023-05-29T06:02:48;18.50;99.90
2579;DHT22;1299;48.282;14.398;2023-05-29T06:05:15;18.70;99.90
2579;DHT22;1299;48.282;14.398;2023-05-29T06:07:42;19.20;99.90
2579;DHT22;1299;48.282;14.398;2023-05-29T06:10:09;19.50;99.90
2579;DHT22;1299;48.282;14.398;2023-05-29T06:12:36;19.40;99.90
2579;DHT22;1299;48.282;14.398;2023-05-29T06:15:04;19.60;99.90
2579;DHT22;1299;48.282;14.398;2023-05-29T06:17:32;19.60;99.90
2579;DHT22;1299;48.282;14.398;2023-05-29T06:20:00;19.50;99.90
2579;DHT22;1299;48.282;14.398;2023-05-29T06:22:27;19.70;99.90
2579;DHT22;1299;48.282;14.398;2023-05-29T06:24:54;20.10;99.90
2579;DHT22;1299;48.282;14.398;2023-05-29T06:27:21;20.30;99.90
2579;DHT22;1299;48.282;14.398;2023-05-29T06:29:51;20.20;99.90
2579;DHT22;1299;48.282;14.398;2023-05-29T06:32:18;20.00;99.90
2579;DHT22;1299;48.282;14.398;2023-05-29T06:34:45;19.30;99.90
2579;DHT22;1299;48.282;14.398;2023-05-29T06:37:14;19.30;99.90
2579;DHT22;1299;48.282;14.398;2023-05-29T06:39:44;19.30;99.90
2579;DHT22;1299;48.282;14.398;2023-05-29T06:42:11;19.70;99.90
2579;DHT22;1299;48.282;14.398;2023-05-29T06:44:38;20.20;99.90
2579;DHT22;1299;48.282;14.398;2023-05-29T06:47:06;20.30;99.90
2579;DHT22;1299;48.282;14.398;2023-05-29T06:49:33;19.70;99.90
2579;DHT22;1299;48.282;14.398;2023-05-29T06:52:00;20.40;99.90
2579;DHT22;1299;48.282;14.398;2023-05-29T06:54:28;20.50;99.90
2579;DHT22;1299;48.282;14.398;2023-05-29T06:56:55;20.90;99.90
2579;DHT22;1299;48.282;14.398;2023-05-29T06:59:22;20.00;99.90
2579;DHT22;1299;48.282;14.398;2023-05-29T07:01:49;19.60;99.90
2579;DHT22;1299;48.282;14.398;2023-05-29T07:04:16;20.10;99.90
2579;DHT22;1299;48.282;14.398;2023-05-29T07:06:43;20.50;99.90
2579;DHT22;1299;48.282;14.398;2023-05-29T07:09:10;21.00;99.90
2579;DHT22;1299;48.282;14.398;2023-05-29T07:11:38;21.30;99.90
2579;DHT22;1299;48.282;14.398;2023-05-29T07:14:05;21.00;99.90
2579;DHT22;1299;48.282;14.398;2023-05-29T07:16:32;20.90;99.80
2579;DHT22;1299;48.282;14.398;2023-05-29T07:18:59;20.80;99.90
2579;DHT22;1299;48.282;14.398;2023-05-29T07:21:26;21.10;99.90
2579;DHT22;1299;48.282;14.398;2023-05-29T07:23:53;22.00;99.90
2579;DHT22;1299;48.282;14.398;2023-05-29T07:26:20;22.50;99.80
2579;DHT22;1299;48.282;14.398;2023-05-29T07:28:49;23.00;98.00
2579;DHT22;1299;48.282;14.398;2023-05-29T07:31:16;22.70;93.80
2579;DHT22;1299;48.282;14.398;2023-05-29T07:33:43;21.70;94.40
2579;DHT22;1299;48.282;14.398;2023-05-29T07:36:11;21.40;92.80
2579;DHT22;1299;48.282;14.398;2023-05-29T07:38:38;21.40;91.30
2579;DHT22;1299;48.282;14.398;2023-05-29T07:41:05;22.00;93.00
2579;DHT22;1299;48.282;14.398;2023-05-29T07:43:32;22.30;92.90
2579;DHT22;1299;48.282;14.398;2023-05-29T07:46:00;22.90;92.30
2579;DHT22;1299;48.282;14.398;2023-05-29T07:48:27;22.10;91.70
2579;DHT22;1299;48.282;14.398;2023-05-29T07:50:54;21.50;91.50
2579;DHT22;1299;48.282;14.398;2023-05-29T07:53:21;21.10;91.60
2579;DHT22;1299;48.282;14.398;2023-05-29T07:55:48;21.10;92.60
2579;DHT22;1299;48.282;14.398;2023-05-29T07:58:15;21.20;92.70
2579;DHT22;1299;48.282;14.398;2023-05-29T08:00:44;21.60;92.40
2579;DHT22;1299;48.282;14.398;2023-05-29T08:03:12;21.80;92.90
2579;DHT22;1299;48.282;14.398;2023-05-29T08:05:39;22.30;92.70
2579;DHT22;1299;48.282;14.398;2023-05-29T08:08:06;22.00;92.40
2579;DHT22;1299;48.282;14.398;2023-05-29T08:10:33;22.30;93.80
2579;DHT22;1299;48.282;14.398;2023-05-29T08:13:00;22.00;93.40
2579;DHT22;1299;48.282;14.398;2023-05-29T08:15:27;21.90;93.70
2579;DHT22;1299;48.282;14.398;2023-05-29T08:17:54;21.40;93.10
2579;DHT22;1299;48.282;14.398;2023-05-29T08:20:22;21.80;93.90
2579;DHT22;1299;48.282;14.398;2023-05-29T08:22:49;22.50;92.70
2579;DHT22;1299;48.282;14.398;2023-05-29T08:25:17;22.70;92.80
2579;DHT22;1299;48.282;14.398;2023-05-29T08:27:44;22.70;91.40
2579;DHT22;1299;48.282;14.398;2023-05-29T08:30:12;22.60;92.20
2579;DHT22;1299;48.282;14.398;2023-05-29T08:32:39;23.30;91.70
2579;DHT22;1299;48.282;14.398;2023-05-29T08:35:06;23.10;92.40
2579;DHT22;1299;48.282;14.398;2023-05-29T08:37:35;23.20;93.20
2579;DHT22;1299;48.282;14.398;2023-05-29T08:40:02;23.80;94.00
2579;DHT22;1299;48.282;14.398;2023-05-29T08:42:38;22.80;93.10
2579;DHT22;1299;48.282;14.398;2023-05-29T08:45:08;23.50;92.30
2579;DHT22;1299;48.282;14.398;2023-05-29T08:47:39;23.80;92.40
2579;DHT22;1299;48.282;14.398;2023-05-29T08:50:07;24.00;92.00
2579;DHT22;1299;48.282;14.398;2023-05-29T08:52:36;23.60;90.60
2579;DHT22;1299;48.282;14.398;2023-05-29T08:55:05;23.20;91.90
2579;DHT22;1299;48.282;14.398;2023-05-29T08:57:32;23.80;91.80
2579;DHT22;1299;48.282;14.398;2023-05-29T09:00:00;24.10;91.10
2579;DHT22;1299;48.282;14.398;2023-05-29T09:02:28;24.20;90.00
2579;DHT22;1299;48.282;14.398;2023-05-29T09:04:55;24.30;90.60
2579;DHT22;1299;48.282;14.398;2023-05-29T09:07:23;24.50;87.70
2579;DHT22;1299;48.282;14.398;2023-05-29T09:09:52;24.10;87.20
2579;DHT22;1299;48.282;14.398;2023-05-29T09:12:20;24.30;87.00
2579;DHT22;1299;48.282;14.398;2023-05-29T09:14:47;24.20;88.10
2579;DHT22;1299;48.282;14.398;2023-05-29T09:17:14;24.20;85.80
2579;DHT22;1299;48.282;14.398;2023-05-29T09:19:42;24.20;84.80
2579;DHT22;1299;48.282;14.398;2023-05-29T09:22:12;24.90;87.60
2579;DHT22;1299;48.282;14.398;2023-05-29T09:24:41;24.60;88.00
2579;DHT22;1299;48.282;14.398;2023-05-29T09:27:10;23.80;85.10
2579;DHT22;1299;48.282;14.398;2023-05-29T09:29:39;24.60;87.30
2579;DHT22;1299;48.282;14.398;2023-05-29T09:32:07;24.90;86.80
2579;DHT22;1299;48.282;14.398;2023-05-29T09:34:35;25.00;85.50
2579;DHT22;1299;48.282;14.398;2023-05-29T09:37:03;25.20;84.00
2579;DHT22;1299;48.282;14.398;2023-05-29T09:39:34;25.20;87.00
2579;DHT22;1299;48.282;14.398;2023-05-29T09:42:09;25.50;85.50
2579;DHT22;1299;48.282;14.398;2023-05-29T09:44:37;25.10;84.20
2579;DHT22;1299;48.282;14.398;2023-05-29T09:47:04;25.00;85.30
2579;DHT22;1299;48.282;14.398;2023-05-29T09:49:32;25.10;82.90
2579;DHT22;1299;48.282;14.398;2023-05-29T09:51:59;24.90;85.20
2579;DHT22;1299;48.282;14.398;2023-05-29T09:54:27;25.00;84.50
2579;DHT22;1299;48.282;14.398;2023-05-29T09:56:56;25.20;84.60
2579;DHT22;1299;48.282;14.398;2023-05-29T09:59:26;25.20;84.60
2579;DHT22;1299;48.282;14.398;2023-05-29T10:02:00;24.80;81.80
2579;DHT22;1299;48.282;14.398;2023-05-29T10:04:30;24.60;83.30
2579;DHT22;1299;48.282;14.398;2023-05-29T10:07:00;24.80;83.10
2579;DHT22;1299;48.282;14.398;2023-05-29T10:09:31;23.80;84.50
2579;DHT22;1299;48.282;14.398;2023-05-29T10:12:01;23.60;85.40
2579;DHT22;1299;48.282;14.398;2023-05-29T10:14:32;23.80;84.50
2579;DHT22;1299;48.282;14.398;2023-05-29T10:17:01;24.10;84.10
2579;DHT22;1299;48.282;14.398;2023-05-29T10:19:32;24.90;83.60
2579;DHT22;1299;48.282;14.398;2023-05-29T10:22:01;24.40;82.70
2579;DHT22;1299;48.282;14.398;2023-05-29T10:24:30;23.70;85.20
2579;DHT22;1299;48.282;14.398;2023-05-29T10:26:58;23.00;83.10
2579;DHT22;1299;48.282;14.398;2023-05-29T10:29:28;23.70;87.00
2579;DHT22;1299;48.282;14.398;2023-05-29T10:32:07;23.50;84.60
2579;DHT22;1299;48.282;14.398;2023-05-29T10:34:43;23.70;84.10
2579;DHT22;1299;48.282;14.398;2023-05-29T10:37:18;24.60;85.40
2579;DHT22;1299;48.282;14.398;2023-05-29T10:39:48;25.20;82.70
2579;DHT22;1299;48.282;14.398;2023-05-29T10:42:45;25.00;85.40
2579;DHT22;1299;48.282;14.398;2023-05-29T10:48:42;24.60;84.30
2579;DHT22;1299;48.282;14.398;2023-05-29T10:51:24;24.60;85.70
2579;DHT22;1299;48.282;14.398;2023-05-29T10:53:52;24.40;85.30
2579;DHT22;1299;48.282;14.398;2023-05-29T10:56:23;24.00;84.50
2579;DHT22;1299;48.282;14.398;2023-05-29T10:58:57;24.70;86.60
2579;DHT22;1299;48.282;14.398;2023-05-29T11:01:27;25.30;85.80
2579;DHT22;1299;48.282;14.398;2023-05-29T11:06:54;24.80;81.60
2579;DHT22;1299;48.282;14.398;2023-05-29T11:09:28;25.00;82.40
2579;DHT22;1299;48.282;14.398;2023-05-29T11:12:14;25.50;82.10
2579;DHT22;1299;48.282;14.398;2023-05-29T11:14:54;25.60;79.10
2579;DHT22;1299;48.282;14.398;2023-05-29T11:17:43;25.70;79.60
2579;DHT22;1299;48.282;14.398;2023-05-29T11:20:21;26.10;82.50
2579;DHT22;1299;48.282;14.398;2023-05-29T11:23:00;26.00;79.70
2579;DHT22;1299;48.282;14.398;2023-05-29T11:25:28;25.90;81.00
2579;DHT22;1299;48.282;14.398;2023-05-29T11:27:58;25.70;81.90
2579;DHT22;1299;48.282;14.398;2023-05-29T11:30:26;25.50;80.90
2579;DHT22;1299;48.282;14.398;2023-05-29T11:32:53;25.80;81.50
2579;DHT22;1299;48.282;14.398;2023-05-29T11:35:22;25.50;81.70
2579;DHT22;1299;48.282;14.398;2023-05-29T11:37:50;25.20;81.70
2579;DHT22;1299;48.282;14.398;2023-05-29T11:40:18;25.30;82.20
2579;DHT22;1299;48.282;14.398;2023-05-29T11:42:46;24.10;81.40
2579;DHT22;1299;48.282;14.398;2023-05-29T11:45:15;24.70;84.00
2579;DHT22;1299;48.282;14.398;2023-05-29T11:47:55;24.60;83.40
2579;DHT22;1299;48.282;14.398;2023-05-29T11:50:23;24.70;80.90
2579;DHT22;1299;48.282;14.398;2023-05-29T11:52:50;24.90;81.30
2579;DHT22;1299;48.282;14.398;2023-05-29T11:55:19;24.70;80.70
2579;DHT22;1299;48.282;14.398;2023-05-29T11:57:47;24.90;81.70
2579;DHT22;1299;48.282;14.398;2023-05-29T12:00:15;25.00;80.00
2579;DHT22;1299;48.282;14.398;2023-05-29T12:02:43;25.50;79.80
2579;DHT22;1299;48.282;14.398;2023-05-29T12:05:13;26.00;80.00
2579;DHT22;1299;48.282;14.398;2023-05-29T12:07:47;26.30;81.00
2579;DHT22;1299;48.282;14.398;2023-05-29T12:10:16;25.20;81.50
2579;DHT22;1299;48.282;14.398;2023-05-29T12:12:47;25.30;83.40
2579;DHT22;1299;48.282;14.398;2023-05-29T12:15:14;24.70;83.50
2579;DHT22;1299;48.282;14.398;2023-05-29T12:17:41;24.40;83.20
2579;DHT22;1299;48.282;14.398;2023-05-29T12:20:11;24.60;84.20
2579;DHT22;1299;48.282;14.398;2023-05-29T12:22:39;24.90;84.90
2579;DHT22;1299;48.282;14.398;2023-05-29T12:25:09;24.80;82.10
2579;DHT22;1299;48.282;14.398;2023-05-29T12:27:38;24.80;83.80
2579;DHT22;1299;48.282;14.398;2023-05-29T12:30:11;25.50;80.50
2579;DHT22;1299;48.282;14.398;2023-05-29T12:32:41;26.10;81.80
2579;DHT22;1299;48.282;14.398;2023-05-29T12:35:13;25.80;80.40
2579;DHT22;1299;48.282;14.398;2023-05-29T12:37:45;24.80;83.20
2579;DHT22;1299;48.282;14.398;2023-05-29T12:40:17;24.60;81.50
2579;DHT22;1299;48.282;14.398;2023-05-29T12:42:46;25.20;82.70
2579;DHT22;1299;48.282;14.398;2023-05-29T12:45:16;25.60;82.80
2579;DHT22;1299;48.282;14.398;2023-05-29T12:47:51;25.70;82.00
2579;DHT22;1299;48.282;14.398;2023-05-29T12:50:26;26.10;82.80
2579;DHT22;1299;48.282;14.398;2023-05-29T12:52:55;25.50;82.20
2579;DHT22;1299;48.282;14.398;2023-05-29T12:55:22;25.70;85.10
2579;DHT22;1299;48.282;14.398;2023-05-29T12:57:49;25.30;82.70
2579;DHT22;1299;48.282;14.398;2023-05-29T13:00:18;25.40;82.60
2579;DHT22;1299;48.282;14.398;2023-05-29T13:02:46;25.00;84.20
2579;DHT22;1299;48.282;14.398;2023-05-29T13:05:13;25.20;84.00
2579;DHT22;1299;48.282;14.398;2023-05-29T13:07:41;24.80;83.50
2579;DHT22;1299;48.282;14.398;2023-05-29T13:10:09;24.80;83.60
2579;DHT22;1299;48.282;14.398;2023-05-29T13:12:36;24.70;82.40
2579;DHT22;1299;48.282;14.398;2023-05-29T13:15:03;25.10;81.60
2579;DHT22;1299;48.282;14.398;2023-05-29T13:17:32;25.50;83.70
2579;DHT22;1299;48.282;14.398;2023-05-29T13:19:59;25.30;84.70
2579;DHT22;1299;48.282;14.398;2023-05-29T13:22:26;25.10;84.00
2579;DHT22;1299;48.282;14.398;2023-05-29T13:24:57;25.10;85.40
2579;DHT22;1299;48.282;14.398;2023-05-29T13:27:25;25.00;82.50
2579;DHT22;1299;48.282;14.398;2023-05-29T13:29:52;24.90;83.10
2579;DHT22;1299;48.282;14.398;2023-05-29T13:32:19;24.90;83.30
2579;DHT22;1299;48.282;14.398;2023-05-29T13:34:48;24.70;83.80
2579;DHT22;1299;48.282;14.398;2023-05-29T13:37:15;24.90;84.90
2579;DHT22;1299;48.282;14.398;2023-05-29T13:39:42;25.00;86.60
2579;DHT22;1299;48.282;14.398;2023-05-29T13:42:09;24.60;83.90
2579;DHT22;1299;48.282;14.398;2023-05-29T13:44:37;24.30;82.10
2579;DHT22;1299;48.282;14.398;2023-05-29T13:47:05;24.50;85.80
2579;DHT22;1299;48.282;14.398;2023-05-29T13:49:33;24.60;84.30
2579;DHT22;1299;48.282;14.398;2023-05-29T13:52:02;24.60;84.30
2579;DHT22;1299;48.282;14.398;2023-05-29T13:54:29;25.10;83.40
2579;DHT22;1299;48.282;14.398;2023-05-29T13:57:01;24.90;84.10
2579;DHT22;1299;48.282;14.398;2023-05-29T13:59:28;24.30;84.00
2579;DHT22;1299;48.282;14.398;2023-05-29T14:01:55;24.70;83.50
2579;DHT22;1299;48.282;14.398;2023-05-29T14:04:22;24.70;83.60
2579;DHT22;1299;48.282;14.398;2023-05-29T14:06:49;24.50;81.30
2579;DHT22;1299;48.282;14.398;2023-05-29T14:09:18;25.40;83.40
2579;DHT22;1299;48.282;14.398;2023-05-29T14:11:52;24.80;80.70
2579;DHT22;1299;48.282;14.398;2023-05-29T14:14:19;25.60;81.70
2579;DHT22;1299;48.282;14.398;2023-05-29T14:16:46;26.20;81.30
2579;DHT22;1299;48.282;14.398;2023-05-29T14:19:13;26.50;80.30
2579;DHT22;1299;48.282;14.398;2023-05-29T14:21:40;26.70;80.30
2579;DHT22;1299;48.282;14.398;2023-05-29T14:24:07;26.20;78.50
2579;DHT22;1299;48.282;14.398;2023-05-29T14:26:35;26.30;79.90
2579;DHT22;1299;48.282;14.398;2023-05-29T14:29:02;26.60;79.60
2579;DHT22;1299;48.282;14.398;2023-05-29T14:31:30;26.10;79.60
2579;DHT22;1299;48.282;14.398;2023-05-29T14:33:57;26.40;82.00
2579;DHT22;1299;48.282;14.398;2023-05-29T14:36:24;26.80;82.10
2579;DHT22;1299;48.282;14.398;2023-05-29T14:38:50;26.90;80.90
2579;DHT22;1299;48.282;14.398;2023-05-29T14:41:17;27.00;80.20
2579;DHT22;1299;48.282;14.398;2023-05-29T14:43:46;26.70;79.40
2579;DHT22;1299;48.282;14.398;2023-05-29T14:46:13;26.80;78.60
2579;DHT22;1299;48.282;14.398;2023-05-29T14:48:40;27.00;78.70
2579;DHT22;1299;48.282;14.398;2023-05-29T14:51:07;26.80;77.40
2579;DHT22;1299;48.282;14.398;2023-05-29T14:53:35;26.30;76.90
2579;DHT22;1299;48.282;14.398;2023-05-29T14:56:04;26.50;79.20
2579;DHT22;1299;48.282;14.398;2023-05-29T14:58:31;26.70;78.90
2579;DHT22;1299;48.282;14.398;2023-05-29T15:00:59;26.50;78.90
2579;DHT22;1299;48.282;14.398;2023-05-29T15:03:26;27.00;79.00
2579;DHT22;1299;48.282;14.398;2023-05-29T15:05:54;27.10;79.00
2579;DHT22;1299;48.282;14.398;2023-05-29T15:08:21;27.30;78.40
2579;DHT22;1299;48.282;14.398;2023-05-29T15:10:48;26.80;79.00
2579;DHT22;1299;48.282;14.398;2023-05-29T15:13:15;27.20;80.30
2579;DHT22;1299;48.282;14.398;2023-05-29T15:15:42;27.20;78.70
2579;DHT22;1299;48.282;14.398;2023-05-29T15:18:10;27.00;78.90
2579;DHT22;1299;48.282;14.398;2023-05-29T15:20:37;26.80;78.70
2579;DHT22;1299;48.282;14.398;2023-05-29T15:23:05;26.80;79.70
2579;DHT22;1299;48.282;14.398;2023-05-29T15:25:31;26.90;79.20
2579;DHT22;1299;48.282;14.398;2023-05-29T15:27:58;26.80;79.30
2579;DHT22;1299;48.282;14.398;2023-05-29T15:30:25;26.70;78.70
2579;DHT22;1299;48.282;14.398;2023-05-29T15:32:52;26.00;78.30
2579;DHT22;1299;48.282;14.398;2023-05-29T15:35:21;26.30;79.10
2579;DHT22;1299;48.282;14.398;2023-05-29T15:37:49;26.10;80.80
2579;DHT22;1299;48.282;14.398;2023-05-29T15:40:17;26.50;82.30
2579;DHT22;1299;48.282;14.398;2023-05-29T15:42:44;26.40;80.80
2579;DHT22;1299;48.282;14.398;2023-05-29T15:45:11;26.20;81.00
2579;DHT22;1299;48.282;14.398;2023-05-29T15:47:40;26.30;80.00
2579;DHT22;1299;48.282;14.398;2023-05-29T15:50:07;26.30;79.60
2579;DHT22;1299;48.282;14.398;2023-05-29T15:52:36;26.30;78.80
2579;DHT22;1299;48.282;14.398;2023-05-29T15:55:03;26.40;80.90
2579;DHT22;1299;48.282;14.398;2023-05-29T15:57:30;26.50;79.50